createdAt,value
2023-02-11T06:32:56.840Z,81.64
2023-02-11T06:33:58.835Z,81.85
2023-02-11T06:35:00.838Z,81.85
2023-02-11T06:36:02.853Z,81.64
2023-02-11T06:37:04.858Z,81.64
2023-02-11T06:38:06.887Z,81.43
2023-02-11T06:39:08.910Z,81.40
2023-02-11T06:40:10.943Z,81.54
2023-02-11T06:41:12.962Z,81.64
2023-02-11T06:42:14.966Z,81.50
2023-02-11T06:43:16.994Z,81.40
2023-02-11T06:44:19.055Z,81.40
2023-02-11T06:45:21.058Z,81.40
2023-02-11T06:46:23.738Z,81.19
2023-02-11T06:47:24.633Z,81.19
2023-02-11T06:48:26.682Z,81.19
2023-02-11T06:49:28.687Z,81.19
2023-02-11T06:50:30.715Z,81.19
2023-02-11T06:51:32.761Z,81.29
2023-02-11T06:52:34.767Z,81.29
2023-02-11T06:53:36.788Z,81.40
2023-02-11T06:54:38.814Z,81.61
2023-02-11T06:55:40.805Z,81.61
2023-02-11T06:56:42.823Z,81.71
2023-02-11T06:57:44.833Z,81.81
2023-02-11T06:58:46.877Z,81.85
2023-02-11T06:59:48.920Z,81.92
2023-02-11T07:00:50.940Z,81.81
2023-02-11T07:01:53.048Z,81.92
2023-02-11T07:02:55.152Z,81.92
2023-02-11T07:03:57.221Z,81.81
2023-02-11T07:04:59.247Z,81.81
2023-02-11T07:06:01.268Z,81.81
2023-02-11T07:07:03.268Z,81.81
2023-02-11T07:08:05.296Z,81.71
2023-02-11T07:09:07.306Z,81.71
2023-02-11T07:10:09.353Z,81.71
2023-02-11T07:11:11.369Z,81.61
2023-02-11T07:12:13.425Z,81.61
2023-02-11T07:13:15.417Z,81.81
2023-02-11T07:14:17.433Z,81.61
2023-02-11T07:15:19.421Z,81.61
2023-02-11T07:16:21.512Z,81.71
2023-02-11T07:17:23.515Z,81.81
2023-02-11T07:18:25.529Z,81.71
2023-02-11T07:19:27.556Z,81.71
2023-02-11T07:20:29.628Z,81.67
2023-02-11T07:21:31.626Z,81.67
2023-02-11T07:22:33.628Z,81.57
2023-02-11T07:23:35.666Z,81.57
2023-02-11T07:24:37.699Z,81.57
2023-02-11T07:25:39.730Z,81.46
2023-02-11T07:26:41.743Z,81.46
2023-02-11T07:27:43.774Z,81.57
2023-02-11T07:28:45.797Z,81.57
2023-02-11T07:29:47.821Z,81.57
2023-02-11T07:30:49.839Z,81.57
2023-02-11T07:31:51.888Z,81.57
2023-02-11T07:32:54.026Z,81.46
2023-02-11T07:33:55.996Z,81.36
2023-02-11T07:34:58.069Z,81.36
2023-02-11T07:36:00.128Z,81.36
2023-02-11T07:37:02.114Z,81.36
2023-02-11T07:38:04.124Z,81.26
2023-02-11T07:39:06.122Z,81.15
2023-02-11T07:40:08.162Z,81.15
2023-02-11T07:41:10.187Z,81.15
2023-02-11T07:42:12.278Z,81.05
2023-02-11T07:43:14.267Z,81.36
2023-02-11T07:44:16.341Z,81.26
2023-02-11T07:45:18.374Z,81.26
2023-02-11T07:46:20.455Z,81.36
2023-02-11T07:47:22.452Z,81.57
2023-02-11T07:48:24.471Z,81.57
2023-02-11T07:49:26.478Z,81.36
2023-02-11T07:50:28.527Z,81.36
2023-02-11T07:51:30.545Z,81.26
2023-02-11T07:52:32.568Z,81.26
2023-02-11T07:53:34.659Z,81.36
2023-02-11T07:54:36.694Z,81.26
2023-02-11T07:55:38.715Z,81.36
2023-02-11T07:56:40.730Z,81.36
2023-02-11T07:57:42.723Z,81.36
2023-02-11T07:58:44.740Z,81.26
2023-02-11T07:59:46.756Z,81.15
2023-02-11T08:00:48.802Z,81.05
2023-02-11T08:01:50.820Z,81.26
2023-02-11T08:02:52.813Z,81.15
2023-02-11T08:03:54.824Z,81.12
2023-02-11T08:04:56.818Z,81.12
2023-02-11T08:05:58.852Z,81.01
2023-02-11T08:07:00.866Z,80.81
2023-02-11T08:08:02.874Z,80.81
2023-02-11T08:09:04.880Z,80.91
2023-02-11T08:10:06.889Z,80.81
2023-02-11T08:11:08.917Z,80.70
2023-02-11T08:12:10.922Z,80.70
2023-02-11T08:13:12.928Z,80.81
2023-02-11T08:14:14.953Z,80.81
2023-02-11T08:15:16.955Z,80.81
2023-02-11T08:16:19.051Z,80.81
2023-02-11T08:17:21.043Z,80.91
2023-02-11T08:18:23.053Z,80.91
2023-02-11T08:19:25.063Z,80.81
2023-02-11T08:20:27.078Z,80.91
2023-02-11T08:21:29.099Z,80.81
2023-02-11T08:22:31.108Z,80.81
2023-02-11T08:23:33.185Z,80.70
2023-02-11T08:24:35.215Z,80.67
2023-02-11T08:25:37.224Z,80.67
2023-02-11T08:26:39.283Z,80.77
2023-02-11T08:27:41.330Z,80.67
2023-02-11T08:28:43.349Z,80.77
2023-02-11T08:29:45.378Z,80.56
2023-02-11T08:30:47.449Z,80.46
2023-02-11T08:31:49.466Z,80.32
2023-02-11T08:32:51.506Z,80.11
2023-02-11T08:33:53.527Z,80.11
2023-02-11T08:34:55.541Z,80.11
2023-02-11T08:35:57.550Z,80.01
2023-02-11T08:36:59.557Z,80.11
2023-02-11T08:38:01.570Z,80.01
2023-02-11T08:39:17.452Z,80.11
2023-02-11T08:40:05.004Z,79.90
2023-02-11T08:41:07.040Z,79.90
2023-02-11T08:42:09.065Z,80.01
2023-02-11T08:43:11.117Z,79.90
2023-02-11T08:44:13.108Z,80.01
2023-02-11T08:45:15.143Z,79.90
2023-02-11T08:46:17.303Z,79.80
2023-02-11T08:47:18.281Z,79.66
2023-02-11T08:48:20.303Z,79.66
2023-02-11T08:49:22.332Z,79.55
2023-02-11T08:50:24.365Z,79.35
2023-02-11T08:51:26.346Z,79.35
2023-02-11T08:52:28.377Z,79.21
2023-02-11T08:53:30.390Z,79.11
2023-02-11T08:54:32.421Z,79.21
2023-02-11T08:55:34.428Z,79.21
2023-02-11T08:56:36.458Z,79.35
2023-02-11T08:57:38.482Z,79.55
2023-02-11T08:58:40.520Z,79.76
2023-02-11T08:59:42.532Z,79.87
2023-02-11T09:00:44.529Z,80.18
2023-02-11T09:01:46.600Z,80.32
2023-02-11T09:02:48.595Z,80.52
2023-02-11T09:03:50.608Z,80.63
2023-02-11T09:04:52.608Z,80.59
2023-02-11T09:05:54.643Z,80.59
2023-02-11T09:06:56.661Z,80.38
2023-02-11T09:07:58.756Z,80.04
2023-02-11T09:09:00.769Z,79.83
2023-02-11T09:10:02.798Z,79.73
2023-02-11T09:11:04.809Z,79.73
2023-02-11T09:12:06.850Z,80.04
2023-02-11T09:13:08.886Z,80.14
2023-02-11T09:14:10.916Z,80.14
2023-02-11T09:15:12.945Z,80.24
2023-02-11T09:16:14.970Z,80.49
2023-02-11T09:17:16.984Z,80.59
2023-02-11T09:18:19.015Z,80.70
2023-02-11T09:19:21.106Z,80.80
2023-02-11T09:20:23.114Z,80.65
2023-02-11T09:21:25.115Z,80.90
2023-02-11T09:22:27.128Z,81.00
2023-02-11T09:23:29.159Z,81.10
2023-02-11T09:24:31.248Z,81.10
2023-02-11T09:25:33.265Z,81.10
2023-02-11T09:26:35.292Z,81.21
2023-02-11T09:27:46.376Z,81.07
2023-02-11T09:28:38.649Z,81.07
2023-02-11T09:29:40.676Z,81.17
2023-02-11T09:30:42.810Z,81.17
2023-02-11T09:31:44.887Z,81.28
2023-02-11T09:32:46.986Z,81.38
2023-02-11T09:33:49.037Z,81.38
2023-02-11T09:34:51.045Z,81.48
2023-02-11T09:35:53.056Z,81.38
2023-02-11T09:36:55.083Z,81.48
2023-02-11T09:37:57.100Z,81.59
2023-02-11T09:38:59.130Z,81.59
2023-02-11T09:40:01.130Z,81.59
2023-02-11T09:41:03.156Z,81.79
2023-02-11T09:42:05.165Z,81.79
2023-02-11T09:43:07.166Z,81.59
2023-02-11T09:44:09.189Z,81.59
2023-02-11T09:45:11.200Z,81.34
2023-02-11T09:46:13.256Z,81.24
2023-02-11T09:47:15.268Z,81.14
2023-02-11T09:48:17.302Z,80.89
2023-02-11T09:49:19.355Z,80.79
2023-02-11T09:50:21.465Z,80.79
2023-02-11T09:51:23.454Z,80.58
2023-02-11T09:52:25.484Z,80.58
2023-02-11T09:53:27.494Z,80.13
2023-02-11T09:54:29.538Z,80.03
2023-02-11T09:55:31.563Z,80.23
2023-02-11T09:56:33.565Z,80.13
2023-02-11T09:57:35.602Z,80.03
2023-02-11T09:58:37.640Z,80.03
2023-02-11T09:59:39.643Z,80.03
2023-02-11T10:00:41.671Z,80.03
2023-02-11T10:01:43.745Z,80.03
2023-02-11T10:02:45.750Z,79.93
2023-02-11T10:03:47.779Z,80.03
2023-02-11T10:04:49.843Z,80.34
2023-02-11T10:05:51.887Z,80.13
2023-02-11T10:06:53.920Z,79.99
2023-02-11T10:07:55.954Z,79.79
2023-02-11T10:08:57.993Z,79.68
2023-02-11T10:10:00.080Z,79.68
2023-02-11T10:11:02.099Z,79.68
2023-02-11T10:12:04.114Z,79.79
2023-02-11T10:13:06.128Z,79.79
2023-02-11T10:14:08.137Z,79.79
2023-02-11T10:15:10.168Z,79.99
2023-02-11T10:16:12.266Z,79.99
2023-02-11T10:17:14.275Z,79.99
2023-02-11T10:18:16.288Z,79.89
2023-02-11T10:19:18.287Z,79.79
2023-02-11T10:20:20.306Z,79.58
2023-02-11T10:21:22.298Z,79.68
2023-02-11T10:22:24.311Z,79.58
2023-02-11T10:23:26.322Z,79.89
2023-02-11T10:24:28.340Z,79.79
2023-02-11T10:25:30.393Z,79.99
2023-02-11T10:26:32.405Z,80.10
2023-02-11T10:27:34.420Z,80.10
2023-02-11T10:28:36.495Z,79.99
2023-02-11T10:29:38.506Z,79.85
2023-02-11T10:30:40.570Z,79.89
2023-02-11T10:31:42.733Z,79.96
2023-02-11T10:32:43.679Z,79.89
2023-02-11T10:33:45.693Z,79.79
2023-02-11T10:34:47.690Z,79.99
2023-02-11T10:35:49.722Z,80.10
2023-02-11T10:36:51.728Z,79.99
2023-02-11T10:37:53.754Z,79.99
2023-02-11T10:38:55.768Z,79.89
2023-02-11T10:39:57.786Z,79.99
2023-02-11T10:40:59.833Z,80.10
2023-02-11T10:42:01.867Z,79.89
2023-02-11T10:43:03.887Z,79.75
2023-02-11T10:44:05.904Z,79.85
2023-02-11T10:45:07.930Z,79.89
2023-02-11T10:46:10.079Z,79.89
2023-02-11T10:47:12.086Z,79.99
2023-02-11T10:48:16.417Z,80.20
2023-02-11T10:49:15.190Z,80.30
2023-02-11T10:50:17.220Z,80.51
2023-02-11T10:51:19.276Z,80.51
2023-02-11T10:52:21.300Z,80.61
2023-02-11T10:53:23.333Z,80.71
2023-02-11T10:54:25.380Z,80.61
2023-02-11T10:55:27.387Z,80.51
2023-02-11T10:56:29.403Z,80.51
2023-02-11T10:57:31.436Z,80.61
2023-02-11T10:58:33.445Z,80.71
2023-02-11T10:59:35.452Z,80.85
2023-02-11T11:00:37.468Z,80.92
2023-02-11T11:01:39.531Z,80.92
2023-02-11T11:02:41.532Z,80.82
2023-02-11T11:03:43.559Z,80.71
2023-02-11T11:04:45.615Z,80.82
2023-02-11T11:05:47.650Z,80.71
2023-02-11T11:06:49.714Z,80.82
2023-02-11T11:07:51.724Z,80.82
2023-02-11T11:08:53.733Z,80.61
2023-02-11T11:09:55.753Z,80.82
2023-02-11T11:10:57.740Z,80.82
2023-02-11T11:11:59.811Z,80.71
2023-02-11T11:13:01.841Z,80.82
2023-02-11T11:14:03.880Z,80.71
2023-02-11T11:15:05.892Z,80.82
2023-02-11T11:16:07.973Z,80.92
2023-02-11T11:17:09.963Z,80.71
2023-02-11T11:18:21.450Z,80.82
2023-02-11T11:19:13.422Z,80.61
2023-02-11T11:20:15.436Z,80.82
2023-02-11T11:21:17.465Z,80.82
2023-02-11T11:22:19.496Z,81.03
2023-02-11T11:23:21.548Z,80.82
2023-02-11T11:24:25.544Z,80.71
2023-02-11T11:25:25.516Z,80.82
2023-02-11T11:26:27.533Z,80.82
2023-02-11T11:27:29.580Z,80.71
2023-02-11T11:28:31.680Z,80.71
2023-02-11T11:29:33.664Z,80.82
2023-02-11T11:30:35.735Z,80.82
2023-02-11T11:31:37.848Z,80.82
2023-02-11T11:32:39.909Z,80.82
2023-02-11T11:33:41.940Z,80.92
2023-02-11T11:34:43.946Z,81.03
2023-02-11T11:35:45.975Z,80.82
2023-02-11T11:36:48.017Z,80.71
2023-02-11T11:37:50.030Z,80.68
2023-02-11T11:38:52.072Z,80.57
2023-02-11T11:39:54.119Z,80.37
2023-02-11T11:40:56.125Z,80.37
2023-02-11T11:41:58.162Z,80.37
2023-02-11T11:43:00.179Z,80.47
2023-02-11T11:44:02.217Z,80.47
2023-02-11T11:45:04.232Z,80.26
2023-02-11T11:46:06.280Z,80.26
2023-02-11T11:47:08.290Z,80.37
2023-02-11T11:48:10.352Z,80.47
2023-02-11T11:49:12.335Z,80.47
2023-02-11T11:50:14.362Z,80.57
2023-02-11T11:51:16.360Z,80.47
2023-02-11T11:52:18.385Z,80.57
2023-02-11T11:53:20.453Z,80.78
2023-02-11T11:54:22.477Z,80.68
2023-02-11T11:55:24.480Z,80.88
2023-02-11T11:56:26.560Z,81.09
2023-02-11T11:57:28.595Z,80.98
2023-02-11T11:58:30.603Z,80.98
2023-02-11T11:59:32.601Z,81.23
2023-02-11T12:00:34.612Z,81.23
2023-02-11T12:01:36.681Z,81.23
2023-02-11T12:02:38.712Z,81.33
2023-02-11T12:03:40.715Z,81.43
2023-02-11T12:04:42.726Z,81.43
2023-02-11T12:05:44.757Z,81.64
2023-02-11T12:06:46.768Z,81.64
2023-02-11T12:07:48.791Z,81.75
2023-02-11T12:08:50.840Z,81.95
2023-02-11T12:09:52.842Z,81.75
2023-02-11T12:10:54.870Z,81.75
2023-02-11T12:11:56.884Z,81.75
2023-02-11T12:12:58.917Z,81.64
2023-02-11T12:14:00.984Z,81.64
2023-02-11T12:15:02.992Z,81.71
2023-02-11T12:16:05.003Z,81.50
2023-02-11T12:17:07.009Z,81.61
2023-02-11T12:18:09.019Z,81.61
2023-02-11T12:19:11.042Z,81.71
2023-02-11T12:20:13.057Z,81.61
2023-02-11T12:21:15.066Z,81.61
2023-02-11T12:22:17.102Z,81.50
2023-02-11T12:23:19.120Z,81.29
2023-02-11T12:24:21.174Z,81.29
2023-02-11T12:25:23.193Z,81.09
2023-02-11T12:26:25.220Z,81.19
2023-02-11T12:27:27.240Z,81.09
2023-02-11T12:28:29.281Z,81.09
2023-02-11T12:29:31.339Z,81.19
2023-02-11T12:30:33.379Z,81.19
2023-02-11T12:31:35.501Z,81.29
2023-02-11T12:32:37.531Z,81.40
2023-02-11T12:33:39.565Z,81.50
2023-02-11T12:34:41.566Z,81.50
2023-02-11T12:35:43.593Z,81.61
2023-02-11T12:36:45.613Z,81.61
2023-02-11T12:37:47.644Z,81.50
2023-02-11T12:38:49.656Z,81.61
2023-02-11T12:39:51.701Z,81.71
2023-02-11T12:40:53.810Z,81.71
2023-02-11T12:41:55.785Z,81.81
2023-02-11T12:42:57.818Z,81.71
2023-02-11T12:43:59.846Z,81.81
2023-02-11T12:45:01.867Z,81.91
2023-02-11T12:46:03.963Z,81.91
2023-02-11T12:47:05.940Z,81.91
2023-02-11T12:48:07.957Z,81.91
2023-02-11T12:49:09.996Z,81.91
2023-02-11T12:50:12.025Z,82.12
2023-02-11T12:51:14.058Z,82.12
2023-02-11T12:52:16.072Z,82.22
2023-02-11T12:53:18.070Z,82.26
2023-02-11T12:54:20.085Z,82.22
2023-02-11T12:55:22.088Z,82.12
2023-02-11T12:56:24.099Z,82.33
2023-02-11T12:57:26.137Z,82.12
2023-02-11T12:58:42.957Z,82.22
2023-02-11T12:59:29.589Z,82.22
2023-02-11T13:00:31.605Z,82.43
2023-02-11T13:01:33.644Z,82.43
2023-02-11T13:02:35.684Z,82.33
2023-02-11T13:03:37.693Z,82.22
2023-02-11T13:04:39.731Z,82.22
2023-02-11T13:05:41.781Z,82.12
2023-02-11T13:06:43.817Z,82.12
2023-02-11T13:07:45.813Z,82.12
2023-02-11T13:08:47.843Z,82.12
2023-02-11T13:09:49.884Z,82.01
2023-02-11T13:10:52.299Z,82.01
2023-02-11T13:11:53.422Z,82.01
2023-02-11T13:12:55.458Z,82.01
2023-02-11T13:13:57.469Z,82.12
2023-02-11T13:14:59.512Z,82.33
2023-02-11T13:16:01.590Z,82.33
2023-02-11T13:17:03.621Z,82.33
2023-02-11T13:18:05.651Z,82.43
2023-02-11T13:19:07.679Z,82.53
2023-02-11T13:20:09.714Z,82.64
2023-02-11T13:21:11.734Z,82.64
2023-02-11T13:22:13.775Z,82.64
2023-02-11T13:23:15.797Z,82.84
2023-02-11T13:24:17.814Z,82.84
2023-02-11T13:25:19.825Z,82.84
2023-02-11T13:26:21.843Z,83.05
2023-02-11T13:27:23.855Z,83.15
2023-02-11T13:28:26.017Z,83.19
2023-02-11T13:29:28.041Z,83.25
2023-02-11T13:30:30.161Z,83.39
2023-02-11T13:31:32.358Z,83.39
2023-02-11T13:32:33.337Z,83.39
2023-02-11T13:33:35.414Z,83.39
2023-02-11T13:34:37.432Z,83.50
2023-02-11T13:35:39.477Z,83.50
2023-02-11T13:36:41.480Z,83.36
2023-02-11T13:37:43.512Z,83.36
2023-02-11T13:38:45.546Z,83.39
2023-02-11T13:39:47.571Z,83.36
2023-02-11T13:40:50.010Z,83.39
2023-02-11T13:41:52.830Z,83.36
2023-02-11T13:42:52.730Z,83.36
2023-02-11T13:43:54.752Z,83.36
2023-02-11T13:44:56.783Z,83.46
2023-02-11T13:45:58.854Z,83.50
2023-02-11T13:47:00.874Z,83.46
2023-02-11T13:48:02.888Z,83.50
2023-02-11T13:49:04.919Z,83.46
2023-02-11T13:50:06.940Z,83.46
2023-02-11T13:51:08.972Z,83.46
2023-02-11T13:52:11.008Z,83.56
2023-02-11T13:53:15.717Z,83.56
2023-02-11T13:54:14.667Z,83.46
2023-02-11T13:55:16.688Z,83.56
2023-02-11T13:56:18.712Z,83.46
2023-02-11T13:57:20.758Z,83.46
2023-02-11T13:58:22.765Z,83.46
2023-02-11T13:59:24.774Z,83.36
2023-02-11T14:00:26.781Z,83.46
2023-02-11T14:01:28.852Z,83.56
2023-02-11T14:02:30.916Z,83.56
2023-02-11T14:03:32.927Z,83.56
2023-02-11T14:04:34.937Z,83.66
2023-02-11T14:05:36.966Z,83.66
2023-02-11T14:06:38.971Z,83.66
2023-02-11T14:07:41.265Z,83.56
2023-02-11T14:08:42.188Z,83.56
2023-02-11T14:09:44.198Z,83.66
2023-02-11T14:10:46.232Z,83.66
2023-02-11T14:11:48.237Z,83.66
2023-02-11T14:12:50.267Z,83.77
2023-02-11T14:13:52.289Z,83.77
2023-02-11T14:14:54.285Z,83.87
2023-02-11T14:15:56.291Z,83.87
2023-02-11T14:16:58.406Z,84.08
2023-02-11T14:18:00.482Z,84.08
2023-02-11T14:19:02.534Z,83.97
2023-02-11T14:20:04.639Z,83.97
2023-02-11T14:21:06.681Z,84.08
2023-02-11T14:22:08.671Z,84.08
2023-02-11T14:23:10.693Z,83.97
2023-02-11T14:24:12.724Z,83.97
2023-02-11T14:25:14.745Z,84.08
2023-02-11T14:26:19.561Z,84.18
2023-02-11T14:27:18.542Z,84.18
2023-02-11T14:28:20.653Z,84.18
2023-02-11T14:29:22.662Z,84.39
2023-02-11T14:30:24.667Z,84.49
2023-02-11T14:31:26.912Z,84.49
2023-02-11T14:32:27.830Z,84.63
2023-02-11T14:33:29.939Z,84.63
2023-02-11T14:34:42.399Z,84.63
2023-02-11T14:35:33.425Z,84.69
2023-02-11T14:36:35.463Z,84.59
2023-02-11T14:37:37.453Z,84.59
2023-02-11T14:38:39.494Z,84.59
2023-02-11T14:39:41.503Z,84.83
2023-02-11T14:40:43.539Z,84.83
2023-02-11T14:41:45.559Z,84.80
2023-02-11T14:42:47.560Z,84.83
2023-02-11T14:43:49.660Z,84.94
2023-02-11T14:44:51.651Z,84.90
2023-02-11T14:45:53.730Z,85.15
2023-02-11T14:46:55.723Z,85.04
2023-02-11T14:47:57.735Z,85.15
2023-02-11T14:48:59.761Z,85.04
2023-02-11T14:50:01.780Z,85.15
2023-02-11T14:51:03.805Z,85.15
2023-02-11T14:52:05.813Z,85.04
2023-02-11T14:53:07.843Z,85.15
2023-02-11T14:54:09.872Z,85.15
2023-02-11T14:55:11.879Z,85.25
2023-02-11T14:56:13.893Z,85.25
2023-02-11T14:57:15.936Z,85.35
2023-02-11T14:58:17.942Z,85.25
2023-02-11T14:59:19.987Z,85.25
2023-02-11T15:00:22.106Z,85.11
2023-02-11T15:01:24.158Z,85.00
2023-02-11T15:02:26.223Z,84.90
2023-02-11T15:03:28.241Z,84.80
2023-02-11T15:04:30.240Z,84.80
2023-02-11T15:05:32.249Z,84.80
2023-02-11T15:06:34.266Z,84.69
2023-02-11T15:07:36.297Z,84.80
2023-02-11T15:08:38.356Z,84.80
2023-02-11T15:09:40.351Z,84.69
2023-02-11T15:10:42.362Z,84.80
2023-02-11T15:11:44.392Z,84.80
2023-02-11T15:12:46.408Z,84.80
2023-02-11T15:13:48.414Z,85.00
2023-02-11T15:14:50.456Z,84.90
2023-02-11T15:15:52.554Z,84.90
2023-02-11T15:16:54.561Z,84.90
2023-02-11T15:17:56.587Z,85.00
2023-02-11T15:18:58.629Z,85.11
2023-02-11T15:20:00.713Z,85.11
2023-02-11T15:21:02.774Z,85.21
2023-02-11T15:22:04.795Z,85.21
2023-02-11T15:23:06.806Z,85.21
2023-02-11T15:24:08.828Z,85.31
2023-02-11T15:25:10.844Z,85.41
2023-02-11T15:26:12.885Z,85.41
2023-02-11T15:27:14.927Z,85.41
2023-02-11T15:28:16.955Z,85.52
2023-02-11T15:29:18.967Z,85.62
2023-02-11T15:30:20.988Z,85.52
2023-02-11T15:31:23.166Z,85.52
2023-02-11T15:32:24.473Z,85.62
2023-02-11T15:33:25.490Z,85.83
2023-02-11T15:34:27.493Z,85.83
2023-02-11T15:35:29.528Z,85.83
2023-02-11T15:36:31.542Z,85.93
2023-02-11T15:37:33.576Z,85.93
2023-02-11T15:38:35.583Z,86.04
2023-02-11T15:39:37.615Z,86.04
2023-02-11T15:40:39.672Z,86.24
2023-02-11T15:41:41.706Z,86.24
2023-02-11T15:42:52.583Z,86.45
2023-02-11T15:43:45.168Z,86.34
2023-02-11T15:44:52.293Z,86.45
2023-02-11T15:45:48.683Z,86.55
2023-02-11T15:46:50.717Z,86.55
2023-02-11T15:47:52.733Z,86.65
2023-02-11T15:48:54.781Z,86.76
2023-02-11T15:49:56.808Z,86.76
2023-02-11T15:50:58.850Z,86.86
2023-02-11T15:52:01.003Z,86.96
2023-02-11T15:53:03.029Z,87.06
2023-02-11T15:54:05.056Z,87.27
2023-02-11T15:55:07.067Z,87.48
2023-02-11T15:56:09.116Z,87.58
2023-02-11T15:57:11.132Z,87.58
2023-02-11T15:58:13.162Z,87.68
2023-02-11T15:59:15.195Z,87.68
2023-02-11T16:00:17.203Z,87.79
2023-02-11T16:01:19.299Z,87.89
2023-02-11T16:02:21.316Z,87.89
2023-02-11T16:03:23.342Z,87.79
2023-02-11T16:04:25.457Z,87.89
2023-02-11T16:05:27.443Z,88.09
2023-02-11T16:06:29.545Z,88.20
2023-02-11T16:07:31.575Z,88.20
2023-02-11T16:08:33.655Z,88.30
2023-02-11T16:09:35.688Z,88.30
2023-02-11T16:10:37.721Z,88.40
2023-02-11T16:11:39.766Z,88.72
